createdAt,value
2023-08-22T00:00:56.088Z,11.90
2023-08-22T00:02:28.384Z,15.60
2023-08-22T00:04:00.195Z,11.30
2023-08-22T00:05:35.385Z,11.40
2023-08-22T00:07:08.671Z,12.80
2023-08-22T00:08:40.398Z,13.70
2023-08-22T00:10:12.335Z,13.30
2023-08-22T00:11:44.565Z,11.90
2023-08-22T00:13:16.611Z,13.50
2023-08-22T00:14:48.985Z,14.00
2023-08-22T00:16:21.346Z,13.90
2023-08-22T00:17:53.505Z,10.70
2023-08-22T00:19:25.431Z,10.00
2023-08-22T00:20:57.300Z,13.50
2023-08-22T00:22:29.025Z,11.80
2023-08-22T00:24:00.725Z,12.00
2023-08-22T00:25:32.732Z,12.70
2023-08-22T00:27:05.541Z,13.00
2023-08-22T00:28:37.585Z,13.30
2023-08-22T00:30:09.997Z,13.80
2023-08-22T00:31:41.743Z,12.80
2023-08-22T00:33:13.473Z,14.40
2023-08-22T00:34:45.198Z,13.10
2023-08-22T00:36:16.928Z,13.60
2023-08-22T00:37:48.783Z,12.60
2023-08-22T00:39:20.878Z,12.20
2023-08-22T00:40:53.068Z,15.70
2023-08-22T00:42:24.791Z,12.10
2023-08-22T00:43:56.507Z,12.90
2023-08-22T00:45:28.485Z,11.70
2023-08-22T00:47:00.778Z,11.40
2023-08-22T00:48:32.705Z,10.30
2023-08-22T00:50:05.533Z,11.80
2023-08-22T00:51:40.765Z,13.30
2023-08-22T00:53:12.637Z,13.00
2023-08-22T00:54:45.197Z,13.20
2023-08-22T00:56:17.436Z,13.20
2023-08-22T00:57:49.337Z,12.10
2023-08-22T00:59:21.299Z,12.00
2023-08-22T01:00:53.137Z,15.00
2023-08-22T01:02:25.403Z,11.80
2023-08-22T01:03:57.750Z,12.20
2023-08-22T01:05:33.054Z,12.20
2023-08-22T01:07:21.454Z,11.10
2023-08-22T01:09:16.466Z,11.90
2023-08-22T01:10:54.897Z,15.00
2023-08-22T01:13:09.492Z,10.10
2023-08-22T01:14:49.424Z,11.30
2023-08-22T01:16:23.310Z,11.60
2023-08-22T01:17:58.345Z,12.00
2023-08-22T01:19:33.553Z,12.60
2023-08-22T01:21:06.812Z,14.80
2023-08-22T01:22:41.397Z,11.30
2023-08-22T01:24:13.136Z,12.00
2023-08-22T01:25:46.213Z,11.60
2023-08-22T01:27:22.603Z,10.80
2023-08-22T01:29:04.632Z,10.50
2023-08-22T01:30:44.896Z,12.60
2023-08-22T01:32:35.904Z,11.70
2023-08-22T01:34:20.508Z,12.60
2023-08-22T01:35:56.119Z,12.10
2023-08-22T01:37:31.792Z,10.40
2023-08-22T01:39:08.857Z,12.20
2023-08-22T01:40:42.253Z,12.90
2023-08-22T01:42:14.272Z,12.30
2023-08-22T01:43:46.605Z,12.40
2023-08-22T01:45:18.438Z,13.40
2023-08-22T01:46:50.228Z,13.30
2023-08-22T01:48:22.001Z,13.00
2023-08-22T01:49:53.734Z,10.80
2023-08-22T01:51:27.107Z,11.00
2023-08-22T01:53:01.657Z,12.90
2023-08-22T01:54:39.775Z,10.00
2023-08-22T01:56:11.450Z,13.10
2023-08-22T01:57:43.253Z,13.10
2023-08-22T01:59:14.981Z,12.00
2023-08-22T02:00:46.728Z,11.90
2023-08-22T02:02:19.733Z,12.20
2023-08-22T02:03:52.140Z,12.10
2023-08-22T02:05:23.903Z,10.20
2023-08-22T02:06:55.671Z,12.20
2023-08-22T02:08:28.461Z,10.50
2023-08-22T02:10:01.422Z,12.40
2023-08-22T02:11:33.847Z,13.00
2023-08-22T02:13:05.580Z,13.20
2023-08-22T02:14:37.633Z,12.30
2023-08-22T02:16:09.406Z,11.50
2023-08-22T02:17:41.373Z,11.00
2023-08-22T02:19:14.270Z,11.40
2023-08-22T02:20:46.044Z,11.80
2023-08-22T02:22:17.783Z,11.70
2023-08-22T02:23:49.485Z,11.50
2023-08-22T02:25:21.195Z,10.40
2023-08-22T02:26:53.002Z,12.60
2023-08-22T02:28:25.595Z,13.70
2023-08-22T02:29:58.006Z,10.50
2023-08-22T02:31:30.023Z,12.10
2023-08-22T02:33:01.930Z,10.70
2023-08-22T02:34:34.290Z,9.50
2023-08-22T02:36:06.330Z,10.90
2023-08-22T02:37:38.471Z,11.50
2023-08-22T02:39:10.392Z,11.30
2023-08-22T02:40:42.258Z,11.80
2023-08-22T02:42:13.973Z,9.90
2023-08-22T02:43:45.669Z,10.20
2023-08-22T02:45:17.517Z,10.00
2023-08-22T02:46:49.331Z,11.10
2023-08-22T02:48:21.238Z,11.20
2023-08-22T02:49:53.844Z,12.20
2023-08-22T02:51:25.791Z,14.30
2023-08-22T02:52:57.788Z,10.80
2023-08-22T02:54:29.519Z,12.20
2023-08-22T02:56:01.454Z,13.90
2023-08-22T02:57:33.187Z,10.80
2023-08-22T02:59:04.944Z,11.60
2023-08-22T03:00:36.824Z,10.90
2023-08-22T03:02:08.594Z,13.20
2023-08-22T03:03:40.481Z,13.50
2023-08-22T03:05:15.570Z,12.80
2023-08-22T03:06:48.211Z,12.60
2023-08-22T03:08:20.358Z,13.40
2023-08-22T03:09:52.741Z,12.70
2023-08-22T03:11:26.407Z,14.70
2023-08-22T03:12:59.317Z,10.80
2023-08-22T03:14:31.098Z,12.90
2023-08-22T03:16:03.514Z,12.00
2023-08-22T03:17:38.343Z,12.40
2023-08-22T03:19:10.318Z,13.50
2023-08-22T03:20:42.175Z,13.40
2023-08-22T03:22:13.933Z,13.30
2023-08-22T03:23:45.642Z,10.60
2023-08-22T03:25:19.482Z,11.70
2023-08-22T03:26:51.249Z,13.00
2023-08-22T03:28:23.277Z,10.30
2023-08-22T03:29:55.076Z,11.70
2023-08-22T03:31:28.748Z,11.40
2023-08-22T03:33:00.557Z,12.90
2023-08-22T03:34:32.453Z,11.40
2023-08-22T03:36:04.941Z,14.20
2023-08-22T03:37:36.743Z,10.20
2023-08-22T03:39:08.592Z,14.80
2023-08-22T03:40:40.343Z,13.40
2023-08-22T03:42:12.067Z,11.40
2023-08-22T03:43:43.981Z,12.00
2023-08-22T03:45:15.839Z,14.00
2023-08-22T03:46:47.705Z,12.90
2023-08-22T03:48:26.732Z,12.80
2023-08-22T03:49:58.762Z,12.30
2023-08-22T03:51:32.370Z,12.80
2023-08-22T03:53:04.761Z,11.90
2023-08-22T03:54:36.684Z,10.50
2023-08-22T03:56:08.744Z,12.40
2023-08-22T03:57:41.313Z,12.40
2023-08-22T03:59:13.278Z,12.70
2023-08-22T04:00:45.057Z,12.70
2023-08-22T04:02:17.522Z,11.60
2023-08-22T04:03:49.280Z,16.10
2023-08-22T04:05:20.987Z,13.60
2023-08-22T04:06:52.910Z,10.20
2023-08-22T04:08:25.622Z,11.70
2023-08-22T04:09:57.432Z,15.50
2023-08-22T04:11:29.463Z,13.50
2023-08-22T04:13:01.305Z,14.50
2023-08-22T04:14:33.036Z,11.80
2023-08-22T04:16:06.284Z,13.00
2023-08-22T04:17:43.194Z,11.80
2023-08-22T04:19:15.604Z,11.10
2023-08-22T04:20:47.438Z,12.90
2023-08-22T04:22:19.185Z,13.00
2023-08-22T04:23:51.458Z,13.30
2023-08-22T04:25:25.310Z,12.00
2023-08-22T04:26:58.628Z,12.20
2023-08-22T04:28:34.208Z,13.70
2023-08-22T04:30:07.456Z,10.80
2023-08-22T04:31:41.283Z,11.80
2023-08-22T04:33:13.253Z,9.80
2023-08-22T04:34:45.124Z,11.10
2023-08-22T04:36:16.895Z,16.40
2023-08-22T04:37:48.640Z,12.10
2023-08-22T04:39:20.385Z,13.10
2023-08-22T04:40:54.938Z,13.00
2023-08-22T04:42:44.890Z,11.80
2023-08-22T04:44:18.279Z,12.30
2023-08-22T04:45:53.525Z,12.80
2023-08-22T04:47:26.716Z,12.70
2023-08-22T04:48:58.647Z,14.40
2023-08-22T04:50:30.874Z,13.40
2023-08-22T04:52:03.540Z,12.40
2023-08-22T04:53:35.325Z,13.80
2023-08-22T04:55:07.548Z,13.30
2023-08-22T04:56:39.268Z,12.00
2023-08-22T04:58:11.027Z,12.90
2023-08-22T04:59:42.725Z,14.20
2023-08-22T05:01:14.585Z,12.80
2023-08-22T05:02:46.569Z,13.70
2023-08-22T05:04:18.492Z,12.30
2023-08-22T05:05:51.195Z,11.70
2023-08-22T05:07:25.275Z,14.80
2023-08-22T05:08:57.794Z,13.00
2023-08-22T05:10:29.671Z,13.50
2023-08-22T05:12:01.462Z,12.80
2023-08-22T05:13:33.305Z,12.70
2023-08-22T05:15:05.702Z,12.50
2023-08-22T05:16:38.742Z,13.90
2023-08-22T05:18:10.936Z,12.60
2023-08-22T05:19:42.909Z,11.00
2023-08-22T05:21:14.733Z,16.80
2023-08-22T05:22:46.535Z,13.40
2023-08-22T05:24:18.323Z,12.70
2023-08-22T05:25:50.122Z,15.10
2023-08-22T05:27:21.873Z,14.00
2023-08-22T05:28:53.659Z,13.70
2023-08-22T05:30:25.484Z,14.80
2023-08-22T05:31:57.334Z,14.50
2023-08-22T05:33:29.192Z,14.30
2023-08-22T05:35:00.934Z,14.20
2023-08-22T05:36:32.745Z,15.30
2023-08-22T05:38:04.774Z,14.60
2023-08-22T05:39:36.856Z,15.60
2023-08-22T05:41:09.818Z,16.60
2023-08-22T05:42:41.842Z,16.40
2023-08-22T05:44:13.578Z,17.30
2023-08-22T05:45:45.473Z,15.90
2023-08-22T05:47:18.222Z,17.60
2023-08-22T05:48:50.099Z,18.40
2023-08-22T05:50:22.906Z,18.50
2023-08-22T05:52:05.738Z,20.40
2023-08-22T05:53:38.317Z,14.40
2023-08-22T05:55:10.624Z,15.50
2023-08-22T05:56:43.437Z,14.90
2023-08-22T05:58:17.223Z,15.90
2023-08-22T05:59:49.406Z,17.20
2023-08-22T06:01:22.485Z,18.60
2023-08-22T06:02:54.484Z,17.10
2023-08-22T06:04:26.732Z,16.70
2023-08-22T06:05:58.573Z,14.60
2023-08-22T06:07:30.382Z,17.50
2023-08-22T06:09:02.129Z,14.30
2023-08-22T06:10:34.545Z,13.70
2023-08-22T06:12:07.262Z,13.40
2023-08-22T06:13:39.746Z,13.50
2023-08-22T06:15:11.674Z,13.60
2023-08-22T06:16:43.370Z,14.40
2023-08-22T06:18:15.170Z,13.50
2023-08-22T06:19:49.943Z,15.90
2023-08-22T06:21:21.781Z,13.50
2023-08-22T06:22:53.529Z,16.40
2023-08-22T06:24:25.848Z,17.90
2023-08-22T06:25:57.788Z,14.60
2023-08-22T06:27:31.951Z,14.30
2023-08-22T06:29:04.888Z,14.40
2023-08-22T06:30:36.667Z,13.60
2023-08-22T06:32:08.564Z,13.10
2023-08-22T06:33:41.554Z,17.10
2023-08-22T06:35:13.381Z,16.40
2023-08-22T06:36:45.986Z,13.10
2023-08-22T06:38:17.816Z,13.80
2023-08-22T06:39:49.570Z,18.80
2023-08-22T06:41:21.512Z,13.60
2023-08-22T06:42:53.286Z,13.40
2023-08-22T06:44:34.661Z,16.00
2023-08-22T06:46:06.417Z,16.90
2023-08-22T06:47:38.350Z,18.00
2023-08-22T06:49:10.321Z,17.80
2023-08-22T06:50:42.085Z,16.90
2023-08-22T06:52:13.812Z,15.50
2023-08-22T06:53:45.594Z,17.20
2023-08-22T06:55:17.322Z,16.60
2023-08-22T06:56:49.123Z,17.20
2023-08-22T06:58:20.879Z,18.00
2023-08-22T06:59:52.597Z,17.30
2023-08-22T07:01:24.401Z,16.50
2023-08-22T07:02:56.319Z,18.70
2023-08-22T07:04:32.814Z,18.50
2023-08-22T07:06:04.776Z,20.60
2023-08-22T07:07:37.707Z,18.00
2023-08-22T07:09:09.470Z,19.90
2023-08-22T07:10:41.299Z,16.00
2023-08-22T07:12:13.026Z,16.10
2023-08-22T07:13:44.855Z,15.30
2023-08-22T07:15:16.612Z,14.40
2023-08-22T07:16:48.528Z,15.90
2023-08-22T07:18:20.406Z,16.10
2023-08-22T07:19:54.322Z,17.20
2023-08-22T07:21:26.876Z,14.30
2023-08-22T07:22:58.581Z,14.90
2023-08-22T07:24:30.334Z,13.30
2023-08-22T07:26:02.782Z,14.80
2023-08-22T07:27:34.561Z,14.70
2023-08-22T07:29:06.392Z,15.90
2023-08-22T07:30:38.170Z,12.80
2023-08-22T07:32:10.025Z,18.10
2023-08-22T07:33:41.853Z,13.10
2023-08-22T07:35:13.883Z,16.20
2023-08-22T07:36:45.642Z,15.10
2023-08-22T07:38:17.490Z,13.60
2023-08-22T07:39:49.400Z,13.60
2023-08-22T07:41:21.169Z,11.50
2023-08-22T07:42:52.912Z,10.80
2023-08-22T07:44:25.175Z,13.40
2023-08-22T07:45:56.949Z,15.70
2023-08-22T07:47:28.694Z,12.70
2023-08-22T07:49:00.455Z,13.70
2023-08-22T07:50:32.331Z,11.60
2023-08-22T07:52:04.543Z,11.90
2023-08-22T07:53:36.673Z,10.70
2023-08-22T07:55:08.949Z,13.20
2023-08-22T07:56:40.875Z,10.60
2023-08-22T07:58:12.759Z,10.30
2023-08-22T07:59:44.579Z,10.00
2023-08-22T08:01:16.588Z,11.30
2023-08-22T08:02:49.862Z,9.80
2023-08-22T08:04:21.814Z,11.50
2023-08-22T08:05:53.600Z,13.40
2023-08-22T08:07:25.331Z,11.20
2023-08-22T08:08:57.060Z,11.90
2023-08-22T08:10:28.776Z,12.00
2023-08-22T08:12:00.802Z,11.90
2023-08-22T08:13:34.251Z,13.20
2023-08-22T08:15:08.905Z,11.00
2023-08-22T08:16:41.385Z,12.10
2023-08-22T08:18:15.048Z,9.70
2023-08-22T08:19:46.991Z,14.30
2023-08-22T08:21:19.413Z,12.20
2023-08-22T08:22:51.238Z,11.50
2023-08-22T08:24:23.055Z,11.80
2023-08-22T08:25:54.830Z,12.20
2023-08-22T08:27:26.568Z,12.00
2023-08-22T08:28:58.529Z,10.10
2023-08-22T08:30:30.343Z,9.30
2023-08-22T08:32:02.226Z,7.00
2023-08-22T08:33:34.147Z,10.40
2023-08-22T08:35:06.789Z,10.30
2023-08-22T08:36:39.021Z,10.70
2023-08-22T08:38:10.785Z,8.40
2023-08-22T08:39:42.608Z,8.10
2023-08-22T08:41:15.167Z,8.00
2023-08-22T08:42:47.183Z,9.50
2023-08-22T08:44:21.432Z,7.40
2023-08-22T08:45:54.065Z,7.90
2023-08-22T08:47:26.182Z,8.60
2023-08-22T08:48:58.895Z,9.10
2023-08-22T08:50:32.932Z,9.20
2023-08-22T08:52:08.526Z,8.50
2023-08-22T08:53:42.106Z,9.50
2023-08-22T08:55:14.020Z,8.10
2023-08-22T08:56:45.815Z,10.20
2023-08-22T08:58:17.607Z,9.30
2023-08-22T08:59:49.865Z,9.20
2023-08-22T09:01:27.162Z,9.40
2023-08-22T09:02:59.077Z,11.20
2023-08-22T09:04:30.918Z,10.90
2023-08-22T09:06:02.671Z,13.40
2023-08-22T09:07:34.641Z,14.20
2023-08-22T09:09:09.925Z,11.60
2023-08-22T09:10:42.115Z,9.10
2023-08-22T09:12:16.651Z,9.40
2023-08-22T09:13:56.400Z,11.90
2023-08-22T09:15:28.826Z,10.10
2023-08-22T09:17:02.960Z,11.80
2023-08-22T09:18:43.313Z,13.00
2023-08-22T09:20:15.573Z,11.30
2023-08-22T09:22:06.506Z,14.70
2023-08-22T09:23:43.220Z,13.20
2023-08-22T09:25:15.485Z,12.60
2023-08-22T09:26:48.270Z,12.00
2023-08-22T09:28:20.345Z,9.00
2023-08-22T09:29:52.901Z,12.00
2023-08-22T09:31:25.934Z,11.40
2023-08-22T09:33:01.224Z,10.70
2023-08-22T09:34:35.648Z,10.20
2023-08-22T09:36:07.566Z,11.10
2023-08-22T09:37:41.409Z,11.10
2023-08-22T09:39:17.266Z,9.30
2023-08-22T09:40:56.326Z,9.40
2023-08-22T09:42:31.530Z,9.70
2023-08-22T09:44:07.007Z,10.70
2023-08-22T09:45:43.600Z,8.70
2023-08-22T09:47:16.502Z,9.90
2023-08-22T09:48:53.051Z,10.10
2023-08-22T09:50:40.690Z,8.20
2023-08-22T09:52:13.619Z,9.40
2023-08-22T09:53:52.117Z,8.60
2023-08-22T09:55:23.981Z,9.70
2023-08-22T09:56:57.726Z,11.30
2023-08-22T09:58:30.802Z,12.90
2023-08-22T10:00:05.440Z,10.80
2023-08-22T10:01:44.909Z,11.20
2023-08-22T10:03:18.279Z,10.30
2023-08-22T10:04:51.019Z,11.70
2023-08-22T10:06:42.342Z,10.90
2023-08-22T10:08:18.062Z,11.40
2023-08-22T10:09:50.010Z,9.00
2023-08-22T10:11:24.078Z,10.60
2023-08-22T10:12:57.205Z,12.30
2023-08-22T10:14:42.424Z,9.00
2023-08-22T10:16:14.333Z,7.40
2023-08-22T10:17:46.961Z,11.30
2023-08-22T10:19:22.020Z,10.40
2023-08-22T10:20:57.621Z,9.30
2023-08-22T10:22:36.036Z,9.50
2023-08-22T10:24:07.824Z,9.50
2023-08-22T10:25:51.902Z,9.10
2023-08-22T10:27:29.285Z,9.70
2023-08-22T10:29:14.995Z,9.60
2023-08-22T10:31:06.067Z,12.00
2023-08-22T10:32:37.925Z,11.60
2023-08-22T10:34:10.667Z,8.80
2023-08-22T10:35:42.527Z,9.80
2023-08-22T10:37:26.492Z,9.90
2023-08-22T10:38:59.247Z,11.80
2023-08-22T10:40:34.100Z,8.40
2023-08-22T10:42:07.355Z,8.70
2023-08-22T10:43:39.962Z,9.70
2023-08-22T10:45:18.346Z,9.90
2023-08-22T10:47:06.625Z,8.80
2023-08-22T10:48:38.522Z,14.10
2023-08-22T10:50:17.109Z,9.50
2023-08-22T10:52:11.098Z,9.50
2023-08-22T10:53:45.027Z,9.40
2023-08-22T10:55:21.051Z,9.20
2023-08-22T10:57:19.755Z,7.70
2023-08-22T10:59:00.552Z,8.80
2023-08-22T11:00:33.040Z,8.90
2023-08-22T11:02:07.203Z,10.30
2023-08-22T11:03:39.535Z,8.00
2023-08-22T11:05:14.351Z,9.90
2023-08-22T11:06:46.271Z,8.90
2023-08-22T11:08:18.015Z,9.00
2023-08-22T11:09:50.113Z,9.30
2023-08-22T11:11:21.884Z,10.20
2023-08-22T11:12:57.918Z,7.10
2023-08-22T11:14:48.363Z,7.30
2023-08-22T11:16:20.407Z,9.40
2023-08-22T11:17:52.568Z,8.30
2023-08-22T11:19:24.538Z,8.10
2023-08-22T11:20:57.071Z,10.60
2023-08-22T11:22:28.882Z,9.60
2023-08-22T11:24:00.681Z,6.70
2023-08-22T11:25:32.509Z,9.10
2023-08-22T11:27:07.549Z,8.00
2023-08-22T11:28:40.754Z,8.10
2023-08-22T11:30:13.240Z,8.50
2023-08-22T11:31:45.191Z,9.00
2023-08-22T11:33:21.716Z,8.30
2023-08-22T11:34:59.028Z,7.80
2023-08-22T11:36:31.811Z,7.40
2023-08-22T11:38:04.349Z,6.70
2023-08-22T11:39:36.228Z,11.50
2023-08-22T11:41:08.022Z,10.80
2023-08-22T11:42:40.844Z,8.00
2023-08-22T11:44:15.979Z,7.30
2023-08-22T11:45:48.152Z,10.10
2023-08-22T11:47:20.437Z,10.50
2023-08-22T11:48:52.768Z,10.30
2023-08-22T11:50:26.429Z,8.20
2023-08-22T11:51:58.972Z,8.30
2023-08-22T11:53:32.091Z,9.10
2023-08-22T11:55:08.811Z,8.40
2023-08-22T11:56:40.698Z,7.90
2023-08-22T11:58:16.247Z,7.50
2023-08-22T11:59:48.031Z,10.10
2023-08-22T12:01:23.673Z,7.70
2023-08-22T12:03:02.233Z,7.80
2023-08-22T12:04:44.432Z,10.60
2023-08-22T12:06:17.085Z,5.80
2023-08-22T12:07:48.824Z,6.50
2023-08-22T12:09:20.694Z,6.00
2023-08-22T12:10:54.631Z,7.30
2023-08-22T12:12:27.539Z,6.90
2023-08-22T12:13:59.388Z,7.10
2023-08-22T12:15:31.174Z,8.40
2023-08-22T12:17:02.972Z,12.80
2023-08-22T12:18:36.039Z,8.90
2023-08-22T12:20:08.854Z,10.50
2023-08-22T12:21:40.606Z,9.20
2023-08-22T12:23:14.489Z,8.20
2023-08-22T12:24:49.183Z,11.40
2023-08-22T12:26:21.026Z,7.70
2023-08-22T12:27:52.910Z,7.10
2023-08-22T12:29:25.437Z,6.90
2023-08-22T12:30:57.460Z,7.70
2023-08-22T12:32:29.214Z,8.60
2023-08-22T12:34:01.565Z,8.30
2023-08-22T12:35:35.581Z,7.90
2023-08-22T12:37:07.347Z,8.50
2023-08-22T12:38:39.149Z,7.20
2023-08-22T12:40:14.113Z,8.00
2023-08-22T12:41:45.817Z,8.70
2023-08-22T12:43:17.548Z,8.60
2023-08-22T12:44:49.306Z,6.90
2023-08-22T12:46:21.155Z,7.00
2023-08-22T12:47:52.944Z,10.50
2023-08-22T12:49:25.008Z,8.30
2023-08-22T12:50:56.749Z,8.30
2023-08-22T12:52:28.546Z,7.60
2023-08-22T12:54:00.495Z,9.80
2023-08-22T12:55:32.251Z,8.10
2023-08-22T12:57:04.134Z,6.90
2023-08-22T12:58:35.903Z,7.10
2023-08-22T13:00:10.558Z,7.70
2023-08-22T13:01:42.442Z,9.30
2023-08-22T13:03:14.413Z,7.60
2023-08-22T13:04:46.572Z,11.40
2023-08-22T13:06:18.957Z,7.40
2023-08-22T13:07:50.787Z,6.30
2023-08-22T13:09:22.568Z,8.70
2023-08-22T13:10:55.290Z,7.30
2023-08-22T13:12:27.259Z,7.50
2023-08-22T13:13:58.988Z,8.30
2023-08-22T13:15:31.167Z,6.90
2023-08-22T13:17:04.975Z,5.40
2023-08-22T13:18:36.864Z,7.10
2023-08-22T13:20:09.307Z,6.30
2023-08-22T13:21:41.054Z,9.50
2023-08-22T13:23:12.835Z,7.30
2023-08-22T13:24:44.561Z,9.80
2023-08-22T13:26:16.434Z,7.60
2023-08-22T13:27:48.419Z,8.40
2023-08-22T13:29:20.497Z,6.60
2023-08-22T13:30:52.419Z,6.40
2023-08-22T13:32:24.280Z,8.00
2023-08-22T13:33:56.392Z,11.60
2023-08-22T13:35:30.208Z,6.90
2023-08-22T13:37:02.181Z,8.70
2023-08-22T13:38:34.108Z,6.70
2023-08-22T13:40:07.018Z,9.50
2023-08-22T13:41:38.799Z,7.10
2023-08-22T13:43:11.212Z,8.80
2023-08-22T13:44:43.303Z,10.40
2023-08-22T13:46:15.382Z,9.00
2023-08-22T13:47:48.382Z,7.50
2023-08-22T13:49:21.000Z,9.90
2023-08-22T13:50:52.769Z,11.60
2023-08-22T13:52:24.918Z,8.70
2023-08-22T13:53:56.678Z,6.30
2023-08-22T13:55:28.594Z,7.60
2023-08-22T13:57:00.421Z,8.00
2023-08-22T13:58:32.608Z,7.40
2023-08-22T14:00:06.227Z,8.90
2023-08-22T14:01:38.809Z,7.40
2023-08-22T14:03:10.876Z,8.20
2023-08-22T14:04:42.684Z,9.40
2023-08-22T14:06:14.467Z,8.50
2023-08-22T14:07:46.486Z,10.10
2023-08-22T14:09:26.210Z,10.10
2023-08-22T14:11:01.617Z,8.50
2023-08-22T14:12:33.547Z,6.90
2023-08-22T14:14:05.998Z,7.60
2023-08-22T14:15:37.850Z,8.40
2023-08-22T14:17:09.849Z,6.90
2023-08-22T14:18:41.606Z,8.20
2023-08-22T14:20:13.347Z,7.10
2023-08-22T14:21:48.445Z,8.10
2023-08-22T14:23:20.651Z,10.20
2023-08-22T14:24:52.490Z,8.60
2023-08-22T14:26:24.284Z,6.60
2023-08-22T14:27:56.643Z,8.90
2023-08-22T14:29:28.454Z,6.50
2023-08-22T14:31:01.854Z,8.30
2023-08-22T14:32:34.201Z,6.10
2023-08-22T14:34:06.035Z,9.20
2023-08-22T14:35:42.730Z,9.80
2023-08-22T14:37:22.601Z,9.40
2023-08-22T14:38:55.552Z,9.60
2023-08-22T14:40:27.255Z,8.80
2023-08-22T14:41:58.942Z,8.80
2023-08-22T14:43:31.039Z,7.40
2023-08-22T14:45:02.956Z,8.30
2023-08-22T14:46:35.549Z,7.00
2023-08-22T14:48:07.857Z,9.00
2023-08-22T14:49:39.865Z,10.90
2023-08-22T14:51:11.681Z,8.10
2023-08-22T14:52:43.459Z,10.30
2023-08-22T14:54:15.893Z,9.60
2023-08-22T14:56:03.452Z,9.60
2023-08-22T14:57:35.195Z,11.50
2023-08-22T14:59:07.026Z,9.70
2023-08-22T15:00:38.818Z,9.40
2023-08-22T15:02:11.146Z,8.20
2023-08-22T15:03:43.482Z,6.80
2023-08-22T15:05:15.385Z,9.50
2023-08-22T15:06:47.535Z,8.90
2023-08-22T15:08:19.328Z,11.20
2023-08-22T15:09:51.253Z,10.90
2023-08-22T15:11:23.034Z,11.20
2023-08-22T15:12:54.837Z,8.20
2023-08-22T15:14:27.665Z,7.70
2023-08-22T15:15:59.710Z,8.70
2023-08-22T15:17:31.641Z,7.70
2023-08-22T15:19:10.173Z,8.50
2023-08-22T15:20:42.110Z,7.60
2023-08-22T15:22:13.912Z,8.00
2023-08-22T15:23:45.981Z,9.80
2023-08-22T15:25:17.852Z,8.10
2023-08-22T15:26:49.873Z,6.80
2023-08-22T15:28:22.853Z,6.80
2023-08-22T15:29:54.568Z,9.40
2023-08-22T15:31:26.621Z,6.80
2023-08-22T15:32:58.459Z,6.10
2023-08-22T15:34:30.246Z,6.60
2023-08-22T15:36:02.075Z,7.30
2023-08-22T15:37:33.867Z,6.80
2023-08-22T15:39:05.818Z,7.50
2023-08-22T15:40:46.615Z,8.90
2023-08-22T15:42:18.374Z,7.20
2023-08-22T15:43:50.359Z,6.20
2023-08-22T15:45:22.296Z,8.80
2023-08-22T15:46:54.105Z,8.10
2023-08-22T15:48:25.956Z,9.10
2023-08-22T15:49:58.303Z,7.80
2023-08-22T15:51:30.008Z,7.20
2023-08-22T15:53:01.703Z,6.10
2023-08-22T15:54:33.464Z,9.80
2023-08-22T15:56:05.500Z,8.50
2023-08-22T15:57:37.213Z,8.30
2023-08-22T15:59:09.053Z,8.30
2023-08-22T16:00:43.308Z,9.50
2023-08-22T16:02:15.749Z,9.00
2023-08-22T16:03:47.936Z,9.40
2023-08-22T16:05:19.802Z,8.00
2023-08-22T16:06:52.549Z,7.10
2023-08-22T16:08:24.512Z,11.70
2023-08-22T16:09:56.201Z,8.50
2023-08-22T16:11:27.983Z,9.10
2023-08-22T16:12:59.791Z,9.80
2023-08-22T16:14:31.680Z,7.40
2023-08-22T16:16:03.631Z,9.40
2023-08-22T16:17:35.458Z,7.50
2023-08-22T16:19:07.303Z,10.30
2023-08-22T16:20:39.438Z,7.30
2023-08-22T16:22:12.377Z,8.40
2023-08-22T16:23:44.136Z,9.10
2023-08-22T16:25:15.929Z,9.50
2023-08-22T16:26:48.727Z,9.10
2023-08-22T16:28:23.050Z,8.70
2023-08-22T16:29:54.889Z,5.80
2023-08-22T16:31:28.477Z,9.20
2023-08-22T16:33:00.448Z,8.50
2023-08-22T16:34:32.239Z,9.20
2023-08-22T16:36:05.552Z,8.70
2023-08-22T16:37:37.333Z,9.50
2023-08-22T16:39:11.095Z,9.20
2023-08-22T16:40:42.865Z,9.00
2023-08-22T16:42:14.682Z,7.90
2023-08-22T16:43:47.597Z,7.50
2023-08-22T16:45:19.284Z,13.40
2023-08-22T16:46:51.052Z,7.30
2023-08-22T16:48:23.484Z,8.20
2023-08-22T16:49:55.289Z,9.40
2023-08-22T16:51:30.401Z,7.70
2023-08-22T16:53:02.113Z,6.70
2023-08-22T16:54:33.893Z,8.60
2023-08-22T16:56:05.635Z,8.30
2023-08-22T16:57:37.324Z,8.80
2023-08-22T16:59:10.022Z,9.60
2023-08-22T17:00:41.909Z,7.90
2023-08-22T17:02:13.784Z,7.70
2023-08-22T17:03:46.257Z,11.30
2023-08-22T17:05:18.069Z,7.70
2023-08-22T17:06:52.549Z,7.80
2023-08-22T17:08:24.262Z,10.50
2023-08-22T17:09:56.178Z,8.20
2023-08-22T17:11:27.985Z,7.50
2023-08-22T17:12:59.793Z,10.50
2023-08-22T17:14:33.249Z,8.50
2023-08-22T17:16:05.530Z,9.50
2023-08-22T17:17:37.336Z,8.10
2023-08-22T17:19:09.290Z,10.50
2023-08-22T17:20:41.131Z,8.10
2023-08-22T17:22:13.169Z,9.40
2023-08-22T17:23:44.967Z,8.60
2023-08-22T17:25:16.868Z,9.50
2023-08-22T17:26:51.048Z,11.20
2023-08-22T17:28:22.892Z,9.20
2023-08-22T17:29:54.643Z,10.50
2023-08-22T17:31:28.754Z,9.40
2023-08-22T17:33:00.985Z,8.00
2023-08-22T17:34:32.780Z,7.00
2023-08-22T17:36:05.374Z,7.60
2023-08-22T17:37:37.074Z,8.00
2023-08-22T17:39:09.001Z,7.80
2023-08-22T17:40:40.813Z,8.00
2023-08-22T17:42:12.600Z,7.10
2023-08-22T17:43:44.425Z,7.10
2023-08-22T17:45:16.763Z,10.20
2023-08-22T17:46:48.550Z,9.30
2023-08-22T17:48:20.387Z,7.80
2023-08-22T17:49:52.213Z,7.40
2023-08-22T17:51:23.968Z,6.80
2023-08-22T17:52:55.737Z,8.20
2023-08-22T17:54:27.489Z,8.50
2023-08-22T17:55:59.277Z,7.70
2023-08-22T17:57:30.979Z,9.00
2023-08-22T17:59:03.122Z,10.10
2023-08-22T18:00:34.937Z,9.20
2023-08-22T18:02:17.410Z,9.70
2023-08-22T18:03:49.718Z,6.80
2023-08-22T18:05:22.326Z,7.60
2023-08-22T18:06:54.048Z,9.30
2023-08-22T18:08:26.788Z,8.20
2023-08-22T18:09:58.573Z,8.50
2023-08-22T18:11:30.655Z,10.70
2023-08-22T18:13:02.393Z,10.40
2023-08-22T18:14:34.230Z,9.10
2023-08-22T18:16:10.478Z,9.60
2023-08-22T18:17:43.867Z,11.60
2023-08-22T18:19:15.898Z,9.90
2023-08-22T18:20:47.655Z,8.20
2023-08-22T18:22:19.432Z,8.70
2023-08-22T18:23:51.483Z,7.90
2023-08-22T18:25:23.215Z,9.90
2023-08-22T18:26:54.996Z,9.70
2023-08-22T18:28:29.157Z,7.90
2023-08-22T18:30:02.726Z,9.50
2023-08-22T18:31:34.754Z,9.60
2023-08-22T18:33:06.536Z,8.10
2023-08-22T18:34:40.731Z,7.90
2023-08-22T18:36:18.291Z,10.10
2023-08-22T18:37:50.499Z,7.20
2023-08-22T18:39:22.283Z,8.70
2023-08-22T18:40:55.324Z,8.30
2023-08-22T18:42:29.417Z,10.70
2023-08-22T18:44:03.443Z,10.40
2023-08-22T18:45:35.395Z,8.10
2023-08-22T18:47:07.179Z,9.90
2023-08-22T18:48:39.300Z,8.70
2023-08-22T18:50:11.401Z,8.90
2023-08-22T18:51:44.410Z,8.30
2023-08-22T18:53:16.360Z,7.20
2023-08-22T18:54:48.237Z,9.90
2023-08-22T18:56:20.097Z,10.20
2023-08-22T18:57:52.769Z,8.20
2023-08-22T18:59:24.554Z,9.20
2023-08-22T19:00:58.410Z,8.70
2023-08-22T19:02:30.288Z,8.90
2023-08-22T19:04:02.725Z,9.60
2023-08-22T19:05:34.611Z,7.10
2023-08-22T19:07:06.404Z,8.60
2023-08-22T19:08:38.426Z,7.50
2023-08-22T19:10:11.498Z,8.80
2023-08-22T19:11:43.300Z,10.10
2023-08-22T19:13:15.378Z,9.70
2023-08-22T19:14:47.218Z,12.00
2023-08-22T19:16:19.016Z,14.30
2023-08-22T19:17:50.835Z,11.80
2023-08-22T19:19:22.609Z,12.20
2023-08-22T19:20:54.670Z,10.00
2023-08-22T19:22:26.876Z,13.00
2023-08-22T19:23:58.667Z,10.90
2023-08-22T19:25:30.510Z,11.50
2023-08-22T19:27:02.451Z,13.20
2023-08-22T19:28:34.889Z,11.00
2023-08-22T19:30:07.576Z,10.10
2023-08-22T19:31:39.633Z,11.00
2023-08-22T19:33:18.468Z,12.30
2023-08-22T19:34:51.122Z,9.10
2023-08-22T19:36:23.062Z,12.90
2023-08-22T19:37:54.974Z,11.40
2023-08-22T19:39:27.470Z,12.30
2023-08-22T19:40:59.265Z,10.20
2023-08-22T19:42:30.975Z,12.10
2023-08-22T19:44:02.670Z,10.30
2023-08-22T19:45:34.402Z,11.50
2023-08-22T19:47:06.353Z,13.90
2023-08-22T19:48:38.133Z,10.90
2023-08-22T19:50:10.811Z,12.30
2023-08-22T19:51:42.581Z,12.60
2023-08-22T19:53:14.954Z,10.00
2023-08-22T19:54:46.980Z,10.50
2023-08-22T19:56:18.727Z,11.80
2023-08-22T19:57:51.276Z,12.70
2023-08-22T19:59:23.011Z,12.10
2023-08-22T20:00:55.924Z,11.90
2023-08-22T20:02:27.722Z,17.60
2023-08-22T20:03:59.679Z,15.20
2023-08-22T20:05:32.724Z,14.00
2023-08-22T20:07:05.201Z,12.10
2023-08-22T20:08:37.189Z,13.10
2023-08-22T20:10:10.902Z,11.30
2023-08-22T20:11:43.951Z,14.40
2023-08-22T20:13:19.803Z,12.50
2023-08-22T20:14:51.692Z,12.20
2023-08-22T20:16:23.560Z,10.00